createdAt,value
2023-01-29T00:02:05.576Z,2.27
2023-01-29T00:04:34.464Z,1.57
2023-01-29T00:07:01.781Z,1.83
2023-01-29T00:09:29.543Z,2.53
2023-01-29T00:11:56.915Z,2.70
2023-01-29T00:14:24.319Z,2.30
2023-01-29T00:16:51.764Z,3.03
2023-01-29T00:19:19.538Z,3.33
2023-01-29T00:21:48.239Z,3.27
2023-01-29T00:24:15.836Z,3.97
2023-01-29T00:26:43.343Z,1.93
2023-01-29T00:29:10.714Z,2.53
2023-01-29T00:31:38.153Z,2.23
2023-01-29T00:34:07.773Z,2.90
2023-01-29T00:36:35.152Z,3.10
2023-01-29T00:39:10.820Z,3.63
2023-01-29T00:41:56.486Z,2.90
2023-01-29T00:44:41.685Z,3.20
2023-01-29T00:47:29.878Z,2.80
2023-01-29T00:49:57.325Z,3.80
2023-01-29T00:52:24.770Z,3.57
2023-01-29T00:54:53.813Z,4.17
2023-01-29T00:57:21.537Z,3.17
2023-01-29T00:59:48.959Z,4.27
2023-01-29T01:02:33.996Z,4.10
2023-01-29T01:05:03.128Z,2.67
2023-01-29T01:07:30.538Z,4.30
2023-01-29T01:10:17.465Z,2.93
2023-01-29T01:12:46.059Z,3.17
2023-01-29T01:15:13.504Z,3.40
2023-01-29T01:17:41.436Z,3.30
2023-01-29T01:20:10.066Z,2.93
2023-01-29T01:22:37.601Z,3.37
2023-01-29T01:25:06.946Z,3.87
2023-01-29T01:27:34.758Z,3.27
2023-01-29T01:30:02.253Z,3.33
2023-01-29T01:32:29.654Z,3.37
2023-01-29T01:34:57.270Z,3.60
2023-01-29T01:37:24.635Z,4.20
2023-01-29T01:39:52.158Z,3.17
2023-01-29T01:42:20.850Z,3.43
2023-01-29T01:44:55.716Z,4.57
2023-01-29T01:47:25.638Z,3.17
2023-01-29T01:49:53.514Z,3.93
2023-01-29T01:52:21.403Z,3.63
2023-01-29T01:54:49.120Z,4.10
2023-01-29T01:57:18.147Z,4.70
2023-01-29T01:59:49.021Z,4.43
2023-01-29T02:02:34.948Z,4.40
2023-01-29T02:05:20.326Z,4.20
2023-01-29T02:08:08.234Z,4.23
2023-01-29T02:10:37.659Z,4.50
2023-01-29T02:13:06.139Z,4.87
2023-01-29T02:15:34.844Z,4.40
2023-01-29T02:18:03.089Z,2.67
2023-01-29T02:20:33.472Z,4.07
2023-01-29T02:23:13.561Z,3.87
2023-01-29T02:25:50.357Z,4.33
2023-01-29T02:28:25.382Z,3.83
2023-01-29T02:30:56.643Z,3.60
2023-01-29T02:33:29.980Z,1.93
2023-01-29T02:36:00.612Z,3.60
2023-01-29T02:38:31.612Z,4.30
2023-01-29T02:41:02.227Z,3.97
2023-01-29T02:43:37.295Z,3.87
2023-01-29T02:46:08.024Z,4.90
2023-01-29T02:48:40.099Z,4.30
2023-01-29T02:51:08.764Z,4.13
2023-01-29T02:53:38.631Z,3.30
2023-01-29T02:56:10.814Z,4.13
2023-01-29T02:58:42.372Z,4.10
2023-01-29T03:01:12.369Z,2.97
2023-01-29T03:03:41.981Z,3.10
2023-01-29T03:06:20.727Z,1.60
2023-01-29T03:08:51.030Z,5.07
2023-01-29T03:11:18.698Z,4.67
2023-01-29T03:13:49.952Z,5.10
2023-01-29T03:16:21.086Z,4.10
2023-01-29T03:18:51.072Z,4.53
2023-01-29T03:21:38.716Z,3.87
2023-01-29T03:24:24.823Z,4.47
2023-01-29T03:27:11.007Z,3.27
2023-01-29T03:30:02.486Z,4.57
2023-01-29T03:32:47.417Z,5.50
2023-01-29T03:35:20.890Z,4.13
2023-01-29T03:37:49.355Z,5.10
2023-01-29T03:40:17.289Z,5.27
2023-01-29T03:42:51.306Z,6.07
2023-01-29T03:45:22.508Z,3.77
2023-01-29T03:47:53.093Z,5.60
2023-01-29T03:50:25.980Z,4.70
2023-01-29T03:52:57.430Z,4.47
2023-01-29T03:55:29.451Z,4.87
2023-01-29T03:58:00.393Z,3.53
2023-01-29T04:00:29.968Z,2.60
2023-01-29T04:03:04.119Z,4.10
2023-01-29T04:05:36.402Z,3.90
2023-01-29T04:08:17.599Z,3.77
2023-01-29T04:10:47.049Z,3.67
2023-01-29T04:13:16.910Z,4.70
2023-01-29T04:15:48.821Z,4.33
2023-01-29T04:18:17.050Z,4.30
2023-01-29T04:21:02.253Z,1.77
2023-01-29T04:23:29.778Z,4.27
2023-01-29T04:26:08.000Z,2.83
2023-01-29T04:28:47.480Z,5.87
2023-01-29T04:31:16.746Z,4.37
2023-01-29T04:33:46.058Z,4.77
2023-01-29T04:36:21.586Z,4.00
2023-01-29T04:38:53.481Z,4.80
2023-01-29T04:41:22.705Z,5.27
2023-01-29T04:43:55.251Z,5.33
2023-01-29T04:46:27.571Z,5.47
2023-01-29T04:49:01.192Z,5.43
2023-01-29T04:51:33.365Z,4.10
2023-01-29T04:54:03.310Z,5.00
2023-01-29T04:56:35.360Z,5.20
2023-01-29T04:59:04.913Z,4.70
2023-01-29T05:01:34.800Z,3.10
2023-01-29T05:04:03.782Z,1.47
2023-01-29T05:06:32.301Z,5.83
2023-01-29T05:09:00.506Z,4.30
2023-01-29T05:11:28.076Z,5.17
2023-01-29T05:13:55.510Z,5.53
2023-01-29T05:16:25.040Z,4.50
2023-01-29T05:18:54.446Z,5.87
2023-01-29T05:21:23.384Z,4.43
2023-01-29T05:24:10.512Z,5.80
2023-01-29T05:26:55.725Z,4.93
2023-01-29T05:29:23.085Z,4.93
2023-01-29T05:31:50.530Z,5.37
2023-01-29T05:34:19.196Z,5.77
2023-01-29T05:36:46.529Z,5.77
2023-01-29T05:39:13.872Z,5.03
2023-01-29T05:41:41.246Z,6.90
2023-01-29T05:44:08.533Z,6.37
2023-01-29T05:46:35.931Z,4.73
2023-01-29T05:49:03.276Z,5.27
2023-01-29T05:51:32.160Z,4.90
2023-01-29T05:53:59.491Z,6.70
2023-01-29T05:56:26.838Z,5.80
2023-01-29T05:58:54.770Z,5.50
2023-01-29T06:01:23.900Z,6.30
2023-01-29T06:03:51.209Z,6.67
2023-01-29T06:06:18.775Z,4.90
2023-01-29T06:08:47.597Z,5.60
2023-01-29T06:11:16.390Z,4.83
2023-01-29T06:13:43.761Z,5.73
2023-01-29T06:16:11.989Z,5.87
2023-01-29T06:18:39.706Z,7.03
2023-01-29T06:21:08.012Z,6.20
2023-01-29T06:23:36.798Z,6.13
2023-01-29T06:26:06.245Z,6.17
2023-01-29T06:28:33.616Z,7.07
2023-01-29T06:31:21.000Z,6.60
2023-01-29T06:33:49.936Z,4.77
2023-01-29T06:36:17.324Z,4.37
2023-01-29T06:38:44.663Z,6.27
2023-01-29T06:41:13.894Z,5.57
2023-01-29T06:43:41.299Z,6.40
2023-01-29T06:46:09.233Z,7.40
2023-01-29T06:48:36.871Z,6.27
2023-01-29T06:51:04.833Z,6.03
2023-01-29T06:53:32.424Z,6.37
2023-01-29T06:55:59.815Z,4.93
2023-01-29T06:58:28.440Z,5.40
2023-01-29T07:00:55.906Z,7.50
2023-01-29T07:03:23.316Z,5.77
2023-01-29T07:05:53.849Z,4.47
2023-01-29T07:08:22.744Z,6.67
2023-01-29T07:10:50.257Z,6.23
2023-01-29T07:13:17.761Z,6.47
2023-01-29T07:15:46.462Z,6.13
2023-01-29T07:18:13.863Z,3.70
2023-01-29T07:20:41.660Z,6.53
2023-01-29T07:23:10.116Z,6.63
2023-01-29T07:25:37.561Z,7.07
2023-01-29T07:28:05.019Z,7.07
2023-01-29T07:30:32.513Z,6.87
2023-01-29T07:33:07.512Z,6.43
2023-01-29T07:35:37.532Z,5.97
2023-01-29T07:38:04.943Z,6.50
2023-01-29T07:40:32.405Z,6.33
2023-01-29T07:43:00.626Z,7.13
2023-01-29T07:45:28.222Z,5.93
2023-01-29T07:47:56.170Z,7.23
2023-01-29T07:50:25.276Z,6.97
2023-01-29T07:52:54.831Z,6.00
2023-01-29T07:55:22.307Z,7.77
2023-01-29T07:57:55.733Z,5.63
2023-01-29T08:00:23.181Z,7.43
2023-01-29T08:02:50.580Z,6.80
2023-01-29T08:05:18.029Z,6.70
2023-01-29T08:07:51.552Z,6.67
2023-01-29T08:10:28.461Z,6.73
2023-01-29T08:12:56.759Z,4.87
2023-01-29T08:15:24.806Z,6.40
2023-01-29T08:20:39.684Z,7.20
2023-01-29T08:23:09.709Z,7.43
2023-01-29T08:25:37.408Z,6.17
2023-01-29T08:28:05.290Z,7.03
2023-01-29T08:30:33.519Z,6.50
2023-01-29T08:33:01.058Z,7.60
2023-01-29T08:35:28.388Z,6.43
2023-01-29T08:37:56.818Z,5.73
2023-01-29T08:40:25.622Z,3.20
2023-01-29T08:42:53.061Z,6.53
2023-01-29T08:45:20.436Z,6.37
2023-01-29T08:47:48.094Z,8.27
2023-01-29T08:50:16.293Z,7.63
2023-01-29T08:52:44.104Z,8.03
2023-01-29T08:55:11.665Z,7.40
2023-01-29T08:57:40.538Z,8.77
2023-01-29T09:00:10.012Z,7.63
2023-01-29T09:02:37.492Z,7.03
2023-01-29T09:05:05.941Z,6.17
2023-01-29T09:07:33.355Z,5.53
2023-01-29T09:10:00.854Z,7.97
2023-01-29T09:12:28.454Z,8.00
2023-01-29T09:14:57.194Z,6.43
2023-01-29T09:17:24.550Z,5.80
2023-01-29T09:19:52.961Z,5.47
2023-01-29T09:22:20.500Z,6.73
2023-01-29T09:24:47.945Z,8.53
2023-01-29T09:27:15.404Z,6.40
2023-01-29T09:29:42.822Z,6.27
2023-01-29T09:32:11.625Z,7.83
2023-01-29T09:34:39.013Z,7.07
2023-01-29T09:37:06.547Z,5.30
2023-01-29T09:39:33.934Z,7.93
2023-01-29T09:42:04.540Z,6.80
2023-01-29T09:44:38.226Z,6.37
2023-01-29T09:47:09.453Z,6.90
2023-01-29T09:49:42.336Z,8.27
2023-01-29T09:52:12.363Z,7.80
2023-01-29T09:54:45.151Z,7.60
2023-01-29T09:57:15.570Z,6.60
2023-01-29T09:59:42.915Z,7.40
2023-01-29T10:02:11.245Z,7.63
2023-01-29T10:04:59.726Z,4.77
2023-01-29T10:07:44.088Z,8.30
2023-01-29T10:10:18.378Z,4.53
2023-01-29T10:12:53.422Z,7.37
2023-01-29T10:15:27.818Z,7.63
2023-01-29T10:18:01.281Z,7.67
2023-01-29T10:20:39.310Z,4.83
2023-01-29T10:23:14.606Z,6.23
2023-01-29T10:25:42.508Z,8.13
2023-01-29T10:28:18.711Z,7.07
2023-01-29T10:30:49.979Z,8.77
2023-01-29T10:33:19.348Z,5.77
2023-01-29T10:35:50.087Z,8.23
2023-01-29T10:38:25.218Z,7.30
2023-01-29T10:40:55.526Z,6.70
2023-01-29T10:43:27.693Z,7.63
2023-01-29T10:46:00.214Z,6.70
2023-01-29T10:48:41.685Z,6.87
2023-01-29T10:51:16.077Z,8.30
2023-01-29T10:53:49.807Z,7.90
2023-01-29T10:56:25.910Z,7.80
2023-01-29T10:58:55.986Z,4.47
2023-01-29T11:01:23.849Z,6.33
2023-01-29T11:03:57.023Z,5.63
2023-01-29T11:06:25.424Z,5.17
2023-01-29T11:08:56.072Z,6.37
2023-01-29T11:11:26.446Z,7.40
2023-01-29T11:13:57.163Z,7.73
2023-01-29T11:16:25.017Z,6.43
2023-01-29T11:18:53.790Z,5.43
2023-01-29T11:21:22.240Z,5.30
2023-01-29T11:23:49.873Z,7.37
2023-01-29T11:26:20.924Z,6.60
2023-01-29T11:28:49.601Z,6.00
2023-01-29T11:31:22.351Z,6.10
2023-01-29T11:33:54.246Z,5.43
2023-01-29T11:36:22.918Z,5.63
2023-01-29T11:39:05.760Z,5.60
2023-01-29T11:41:43.185Z,7.07
2023-01-29T11:44:18.972Z,6.73
2023-01-29T11:46:48.914Z,5.77
2023-01-29T11:49:23.173Z,5.53
2023-01-29T11:51:53.901Z,5.93
2023-01-29T11:54:24.118Z,3.50
2023-01-29T11:56:53.249Z,5.93
2023-01-29T11:59:28.497Z,4.13
2023-01-29T12:01:56.930Z,6.23
2023-01-29T12:04:25.656Z,6.17
2023-01-29T12:06:54.315Z,4.57
2023-01-29T12:09:23.348Z,4.43
2023-01-29T12:11:52.797Z,3.17
2023-01-29T12:14:29.196Z,5.13
2023-01-29T12:17:00.551Z,5.17
2023-01-29T12:19:30.446Z,5.87
2023-01-29T12:22:02.965Z,5.13
2023-01-29T12:24:33.243Z,5.10
2023-01-29T12:27:06.008Z,5.27
2023-01-29T12:29:37.900Z,4.50
2023-01-29T12:32:08.853Z,4.83
2023-01-29T12:34:42.129Z,4.97
2023-01-29T12:37:12.673Z,5.67
2023-01-29T12:39:40.286Z,3.63
2023-01-29T12:42:11.660Z,5.93
2023-01-29T12:44:42.661Z,5.17
2023-01-29T12:47:15.590Z,6.10
2023-01-29T12:49:46.543Z,5.80
2023-01-29T12:52:17.435Z,3.53
2023-01-29T12:54:48.997Z,5.57
2023-01-29T12:57:21.285Z,4.43
2023-01-29T12:59:52.330Z,5.00
2023-01-29T13:02:24.745Z,2.90
2023-01-29T13:04:56.736Z,4.67
2023-01-29T13:07:26.087Z,5.20
2023-01-29T13:09:55.861Z,4.53
2023-01-29T13:12:24.241Z,5.53
2023-01-29T13:14:56.373Z,5.30
2023-01-29T13:17:27.050Z,5.27
2023-01-29T13:19:56.043Z,4.90
2023-01-29T13:22:25.847Z,6.27
2023-01-29T13:25:04.116Z,4.70
2023-01-29T13:27:33.812Z,5.53
2023-01-29T13:30:02.824Z,5.30
2023-01-29T13:32:31.349Z,5.27
2023-01-29T13:35:00.701Z,4.90
2023-01-29T13:37:30.572Z,4.00
2023-01-29T13:39:58.715Z,5.07
2023-01-29T13:42:27.131Z,4.77
2023-01-29T13:44:55.343Z,4.30
2023-01-29T13:47:25.974Z,5.40
2023-01-29T13:49:58.171Z,4.83
2023-01-29T13:52:31.088Z,4.23
2023-01-29T13:55:00.351Z,5.33
2023-01-29T13:57:35.949Z,4.80
2023-01-29T14:00:03.335Z,4.30
2023-01-29T14:02:33.908Z,4.50
2023-01-29T14:05:20.237Z,4.30
2023-01-29T14:07:51.369Z,4.47
2023-01-29T14:10:20.769Z,5.27
2023-01-29T14:12:52.604Z,5.57
2023-01-29T14:15:25.414Z,4.70
2023-01-29T14:18:03.399Z,2.13
2023-01-29T14:20:45.248Z,5.20
2023-01-29T14:23:22.125Z,5.60
2023-01-29T14:25:49.646Z,2.90
2023-01-29T14:28:21.110Z,5.33
2023-01-29T14:30:49.528Z,5.47
2023-01-29T14:33:25.103Z,5.60
2023-01-29T14:35:53.049Z,5.67
2023-01-29T14:38:20.464Z,4.43
2023-01-29T14:40:48.207Z,4.57
2023-01-29T14:43:19.847Z,5.87
2023-01-29T14:45:47.966Z,4.93
2023-01-29T14:48:37.267Z,3.57
2023-01-29T14:51:10.623Z,5.73
2023-01-29T14:53:46.176Z,4.60
2023-01-29T14:56:15.864Z,5.33
2023-01-29T14:58:45.052Z,5.37
2023-01-29T15:01:18.133Z,5.07
2023-01-29T15:03:48.875Z,4.20
2023-01-29T15:06:19.730Z,7.77
2023-01-29T15:08:50.562Z,5.33
2023-01-29T15:11:36.585Z,3.23
2023-01-29T15:14:11.263Z,5.90
2023-01-29T15:16:44.515Z,5.57
2023-01-29T15:19:14.663Z,5.73
2023-01-29T15:21:56.934Z,5.47
2023-01-29T15:24:25.621Z,6.20
2023-01-29T15:26:53.036Z,6.17
2023-01-29T15:29:23.547Z,7.27
2023-01-29T15:31:51.032Z,4.93
2023-01-29T15:34:18.775Z,5.37
2023-01-29T15:36:47.885Z,3.27
2023-01-29T15:39:16.319Z,3.93
2023-01-29T15:41:45.290Z,5.23
2023-01-29T15:44:14.595Z,5.03
2023-01-29T15:46:42.566Z,5.70
2023-01-29T15:49:12.281Z,6.37
2023-01-29T15:51:39.750Z,5.00
2023-01-29T15:54:11.115Z,5.23
2023-01-29T15:56:39.580Z,4.83
2023-01-29T15:59:09.887Z,6.20
2023-01-29T16:01:37.543Z,3.37
2023-01-29T16:04:06.122Z,4.73
2023-01-29T16:06:36.482Z,6.17
2023-01-29T16:09:05.319Z,5.10
2023-01-29T16:11:33.228Z,5.27
2023-01-29T16:14:00.683Z,6.33
2023-01-29T16:16:29.567Z,4.30
2023-01-29T16:19:00.722Z,6.47
2023-01-29T16:21:29.773Z,5.93
2023-01-29T16:23:59.110Z,7.13
2023-01-29T16:26:28.060Z,7.27
2023-01-29T16:28:56.313Z,4.97
2023-01-29T16:31:26.216Z,5.60
2023-01-29T16:33:57.054Z,5.57
2023-01-29T16:36:25.256Z,4.37
2023-01-29T16:38:55.019Z,5.93
2023-01-29T16:41:30.909Z,4.63
2023-01-29T16:43:59.146Z,7.13
2023-01-29T16:46:29.394Z,6.37
2023-01-29T16:48:58.283Z,6.37
2023-01-29T16:51:27.008Z,5.63
2023-01-29T16:53:57.119Z,8.23
2023-01-29T16:56:25.363Z,6.57
2023-01-29T16:58:53.983Z,4.87
2023-01-29T17:01:22.630Z,6.57
2023-01-29T17:03:53.736Z,6.67
2023-01-29T17:06:25.499Z,7.37
2023-01-29T17:08:53.083Z,6.87
2023-01-29T17:11:28.754Z,4.57
2023-01-29T17:13:57.113Z,4.57
2023-01-29T17:16:27.404Z,6.13
2023-01-29T17:18:54.875Z,6.27
2023-01-29T17:21:25.872Z,6.27
2023-01-29T17:23:53.847Z,6.60
2023-01-29T17:26:21.701Z,6.63
2023-01-29T17:28:50.599Z,5.97
2023-01-29T17:31:19.336Z,6.27
2023-01-29T17:33:46.763Z,6.90
2023-01-29T17:36:15.233Z,6.43
2023-01-29T17:38:48.195Z,6.83
2023-01-29T17:41:19.110Z,7.17
2023-01-29T17:43:46.543Z,6.77
2023-01-29T17:46:15.134Z,7.80
2023-01-29T17:48:42.528Z,6.30
2023-01-29T17:51:11.882Z,6.60
2023-01-29T17:53:47.329Z,6.70
2023-01-29T17:56:17.839Z,5.20
2023-01-29T17:58:45.168Z,6.13
2023-01-29T18:01:12.474Z,5.53
2023-01-29T18:03:39.805Z,5.23
2023-01-29T18:06:08.074Z,5.37
2023-01-29T18:08:36.652Z,6.33
2023-01-29T18:11:04.097Z,5.27
2023-01-29T18:13:32.763Z,6.20
2023-01-29T18:16:00.142Z,5.50
2023-01-29T18:18:27.561Z,5.83
2023-01-29T18:20:54.866Z,3.40
2023-01-29T18:23:22.419Z,7.73
2023-01-29T18:25:49.776Z,5.57
2023-01-29T18:28:17.869Z,5.07
2023-01-29T18:30:47.511Z,5.00
2023-01-29T18:33:15.406Z,6.10
2023-01-29T18:35:44.088Z,4.07
2023-01-29T18:38:11.513Z,5.30
2023-01-29T18:40:38.829Z,3.87
2023-01-29T18:43:06.167Z,4.13
2023-01-29T18:45:33.511Z,4.47
2023-01-29T18:48:02.413Z,6.43
2023-01-29T18:50:29.740Z,4.93
2023-01-29T18:52:57.497Z,6.27
2023-01-29T18:55:26.522Z,6.57
2023-01-29T18:58:26.541Z,6.90
2023-01-29T19:00:41.726Z,4.23
2023-01-29T19:03:13.502Z,5.73
2023-01-29T19:05:40.850Z,5.00
2023-01-29T19:08:08.169Z,6.03
2023-01-29T19:10:35.766Z,5.40
2023-01-29T19:13:04.820Z,5.20
2023-01-29T19:15:33.287Z,6.20
2023-01-29T19:18:00.764Z,7.93
2023-01-29T19:20:29.448Z,4.73
2023-01-29T19:22:56.825Z,4.53
2023-01-29T19:25:24.140Z,4.00
2023-01-29T19:27:51.530Z,5.40
2023-01-29T19:30:19.159Z,7.40
2023-01-29T19:32:46.499Z,4.83
2023-01-29T19:35:13.927Z,3.70
2023-01-29T19:37:42.590Z,5.90
2023-01-29T19:40:10.654Z,3.23
2023-01-29T19:42:38.380Z,4.93
2023-01-29T19:45:06.160Z,4.13
2023-01-29T19:47:33.776Z,5.20
2023-01-29T19:50:01.199Z,5.83
2023-01-29T19:52:52.879Z,6.20
2023-01-29T19:55:22.307Z,4.47
2023-01-29T19:57:49.903Z,4.73
2023-01-29T20:00:18.388Z,4.90
2023-01-29T20:02:46.265Z,4.30
2023-01-29T20:05:16.816Z,4.33
2023-01-29T20:07:44.976Z,4.53
2023-01-29T20:10:17.106Z,3.53
2023-01-29T20:12:46.391Z,2.27
2023-01-29T20:15:13.966Z,3.90
2023-01-29T20:17:41.482Z,3.50
2023-01-29T20:20:09.891Z,5.33
2023-01-29T20:22:37.463Z,4.57
2023-01-29T20:25:05.203Z,4.97
2023-01-29T20:27:32.762Z,5.37
2023-01-29T20:30:01.701Z,4.53
2023-01-29T20:32:29.820Z,3.17
2023-01-29T20:34:57.292Z,4.90
2023-01-29T20:37:24.697Z,2.00
2023-01-29T20:39:52.135Z,2.77
2023-01-29T20:42:19.489Z,2.57
2023-01-29T20:44:47.102Z,5.13
2023-01-29T20:47:15.987Z,3.77
2023-01-29T20:49:43.597Z,4.93
2023-01-29T20:52:12.387Z,4.70
2023-01-29T20:54:40.211Z,4.93
2023-01-29T20:57:07.986Z,2.43
2023-01-29T20:59:35.413Z,3.50
2023-01-29T21:02:03.290Z,2.93
2023-01-29T21:04:32.330Z,2.60
2023-01-29T21:06:59.775Z,3.70
2023-01-29T21:09:27.249Z,4.23
2023-01-29T21:11:54.663Z,5.13
2023-01-29T21:14:22.130Z,4.27
2023-01-29T21:16:49.685Z,3.23
2023-01-29T21:19:17.477Z,3.13
2023-01-29T21:21:46.217Z,4.50
2023-01-29T21:24:15.044Z,3.30
2023-01-29T21:26:42.479Z,4.27
2023-01-29T21:29:11.374Z,3.43
2023-01-29T21:31:39.005Z,2.57
2023-01-29T21:34:06.546Z,3.43
2023-01-29T21:36:34.231Z,4.53
2023-01-29T21:39:16.412Z,3.10
2023-01-29T21:42:01.792Z,3.77
2023-01-29T21:44:29.214Z,1.93
2023-01-29T21:46:56.690Z,4.50
2023-01-29T21:49:24.465Z,3.27
2023-01-29T21:51:52.168Z,4.27
2023-01-29T21:54:21.015Z,4.67
2023-01-29T21:56:48.581Z,3.83
2023-01-29T21:59:16.372Z,4.20
2023-01-29T22:01:43.775Z,4.20
2023-01-29T22:04:11.583Z,4.00
2023-01-29T22:06:39.301Z,3.57
2023-01-29T22:09:06.785Z,4.23
2023-01-29T22:11:35.692Z,2.53
2023-01-29T22:14:03.265Z,3.20
2023-01-29T22:16:31.235Z,2.80
2023-01-29T22:18:59.028Z,4.07
2023-01-29T22:21:26.587Z,1.33
2023-01-29T22:23:54.001Z,4.40
2023-01-29T22:26:21.633Z,3.90
2023-01-29T22:28:50.330Z,4.80
2023-01-29T22:31:18.298Z,3.67
2023-01-29T22:33:46.136Z,4.73
2023-01-29T22:36:13.645Z,2.73
2023-01-29T22:38:42.645Z,3.23
2023-01-29T22:41:10.442Z,2.70
2023-01-29T22:43:38.307Z,3.97
2023-01-29T22:46:09.282Z,4.63
2023-01-29T22:48:36.679Z,3.97
2023-01-29T22:51:13.906Z,4.10
2023-01-29T22:53:42.258Z,4.93
2023-01-29T22:56:10.271Z,3.53
2023-01-29T22:58:37.951Z,3.77
2023-01-29T23:01:05.628Z,3.33
2023-01-29T23:03:34.450Z,4.57
2023-01-29T23:06:01.834Z,4.43
2023-01-29T23:08:29.222Z,4.43
2023-01-29T23:11:13.692Z,2.67
2023-01-29T23:13:41.574Z,2.83
2023-01-29T23:16:09.637Z,5.27
2023-01-29T23:18:38.588Z,4.70
2023-01-29T23:21:06.576Z,2.67
2023-01-29T23:23:35.006Z,3.90
2023-01-29T23:26:21.470Z,3.77
2023-01-29T23:28:48.889Z,3.83
2023-01-29T23:31:16.719Z,4.80
2023-01-29T23:33:45.400Z,5.40
2023-01-29T23:36:12.828Z,4.30
2023-01-29T23:38:40.170Z,3.60
2023-01-29T23:41:07.756Z,4.67
2023-01-29T23:43:35.162Z,4.50
2023-01-29T23:46:02.695Z,4.07
2023-01-29T23:48:30.036Z,5.27
2023-01-29T23:50:58.731Z,3.60
2023-01-29T23:53:26.072Z,4.83
2023-01-29T23:55:57.495Z,3.70
2023-01-29T23:58:25.342Z,3.50
